sensor_id;sensor_type;location;lat;lon;timestamp;P1;durP1;ratioP1;P2;durP2;ratioP2
39482;SDS011;25682;48.438;1.482;2022-07-29T00:00:43;2.78;;;1.20;;
39482;SDS011;25682;48.438;1.482;2022-07-29T00:03:12;2.20;;;1.13;;
39482;SDS011;25682;48.438;1.482;2022-07-29T00:05:39;2.90;;;0.90;;
39482;SDS011;25682;48.438;1.482;2022-07-29T00:08:05;1.85;;;1.40;;
39482;SDS011;25682;48.438;1.482;2022-07-29T00:10:31;1.85;;;1.15;;
39482;SDS011;25682;48.438;1.482;2022-07-29T00:12:57;2.15;;;1.02;;
39482;SDS011;25682;48.438;1.482;2022-07-29T00:15:23;3.33;;;1.40;;
39482;SDS011;25682;48.438;1.482;2022-07-29T00:17:49;4.07;;;1.25;;
39482;SDS011;25682;48.438;1.482;2022-07-29T00:20:16;2.47;;;1.10;;
39482;SDS011;25682;48.438;1.482;2022-07-29T00:22:42;3.03;;;1.55;;
39482;SDS011;25682;48.438;1.482;2022-07-29T00:25:08;3.38;;;1.17;;
39482;SDS011;25682;48.438;1.482;2022-07-29T00:27:34;2.45;;;1.27;;
39482;SDS011;25682;48.438;1.482;2022-07-29T00:30:00;2.83;;;1.48;;
39482;SDS011;25682;48.438;1.482;2022-07-29T00:32:26;3.70;;;1.30;;
39482;SDS011;25682;48.438;1.482;2022-07-29T00:34:52;2.70;;;1.35;;
39482;SDS011;25682;48.438;1.482;2022-07-29T00:37:37;4.20;;;1.27;;
39482;SDS011;25682;48.438;1.482;2022-07-29T00:40:03;2.60;;;1.30;;
39482;SDS011;25682;48.438;1.482;2022-07-29T00:42:29;1.92;;;0.95;;
39482;SDS011;25682;48.438;1.482;2022-07-29T00:44:55;2.60;;;1.15;;
39482;SDS011;25682;48.438;1.482;2022-07-29T00:47:21;3.92;;;1.40;;
39482;SDS011;25682;48.438;1.482;2022-07-29T00:49:47;1.83;;;1.10;;
39482;SDS011;25682;48.438;1.482;2022-07-29T00:52:13;2.63;;;1.17;;
39482;SDS011;25682;48.438;1.482;2022-07-29T00:54:39;2.85;;;1.20;;
39482;SDS011;25682;48.438;1.482;2022-07-29T00:57:06;3.80;;;1.75;;
39482;SDS011;25682;48.438;1.482;2022-07-29T00:59:32;2.58;;;1.50;;
39482;SDS011;25682;48.438;1.482;2022-07-29T01:01:59;1.73;;;1.10;;
39482;SDS011;25682;48.438;1.482;2022-07-29T01:04:25;2.03;;;1.20;;
39482;SDS011;25682;48.438;1.482;2022-07-29T01:06:51;2.25;;;1.13;;
39482;SDS011;25682;48.438;1.482;2022-07-29T01:09:18;3.53;;;1.58;;
39482;SDS011;25682;48.438;1.482;2022-07-29T01:11:45;3.00;;;1.40;;
39482;SDS011;25682;48.438;1.482;2022-07-29T01:14:13;4.10;;;1.30;;
39482;SDS011;25682;48.438;1.482;2022-07-29T01:16:42;3.08;;;1.10;;
39482;SDS011;25682;48.438;1.482;2022-07-29T01:19:20;2.25;;;1.20;;
39482;SDS011;25682;48.438;1.482;2022-07-29T01:21:50;6.63;;;1.35;;
39482;SDS011;25682;48.438;1.482;2022-07-29T01:27:09;3.27;;;1.40;;
39482;SDS011;25682;48.438;1.482;2022-07-29T01:29:45;2.55;;;1.52;;
39482;SDS011;25682;48.438;1.482;2022-07-29T01:32:15;1.27;;;0.98;;
39482;SDS011;25682;48.438;1.482;2022-07-29T01:37:11;2.88;;;1.13;;
39482;SDS011;25682;48.438;1.482;2022-07-29T01:39:38;2.60;;;1.30;;
39482;SDS011;25682;48.438;1.482;2022-07-29T01:44:33;2.60;;;1.35;;
39482;SDS011;25682;48.438;1.482;2022-07-29T01:47:01;1.33;;;1.10;;
39482;SDS011;25682;48.438;1.482;2022-07-29T01:49:28;1.88;;;1.33;;
39482;SDS011;25682;48.438;1.482;2022-07-29T01:51:55;2.72;;;1.30;;
39482;SDS011;25682;48.438;1.482;2022-07-29T01:56:48;3.42;;;1.38;;
39482;SDS011;25682;48.438;1.482;2022-07-29T01:59:15;2.00;;;1.00;;
39482;SDS011;25682;48.438;1.482;2022-07-29T02:01:41;2.38;;;1.20;;
39482;SDS011;25682;48.438;1.482;2022-07-29T02:04:10;1.80;;;1.10;;
39482;SDS011;25682;48.438;1.482;2022-07-29T02:06:37;2.33;;;1.40;;
39482;SDS011;25682;48.438;1.482;2022-07-29T02:09:03;1.83;;;1.10;;
39482;SDS011;25682;48.438;1.482;2022-07-29T02:11:30;1.85;;;1.10;;
39482;SDS011;25682;48.438;1.482;2022-07-29T02:13:59;3.05;;;1.02;;
39482;SDS011;25682;48.438;1.482;2022-07-29T02:16:26;2.60;;;1.33;;
39482;SDS011;25682;48.438;1.482;2022-07-29T02:18:52;2.78;;;1.42;;
39482;SDS011;25682;48.438;1.482;2022-07-29T02:21:20;1.55;;;0.90;;
39482;SDS011;25682;48.438;1.482;2022-07-29T02:23:48;1.88;;;1.05;;
39482;SDS011;25682;48.438;1.482;2022-07-29T02:26:15;2.53;;;1.50;;
39482;SDS011;25682;48.438;1.482;2022-07-29T02:28:42;2.15;;;1.20;;
39482;SDS011;25682;48.438;1.482;2022-07-29T02:31:08;3.25;;;1.20;;
39482;SDS011;25682;48.438;1.482;2022-07-29T02:33:35;2.25;;;1.40;;
39482;SDS011;25682;48.438;1.482;2022-07-29T02:36:01;2.67;;;1.10;;
39482;SDS011;25682;48.438;1.482;2022-07-29T02:38:27;2.42;;;0.90;;
39482;SDS011;25682;48.438;1.482;2022-07-29T02:43:55;2.10;;;1.40;;
39482;SDS011;25682;48.438;1.482;2022-07-29T02:46:25;2.42;;;1.38;;
39482;SDS011;25682;48.438;1.482;2022-07-29T02:48:58;2.75;;;1.10;;
39482;SDS011;25682;48.438;1.482;2022-07-29T02:51:27;2.28;;;1.30;;
39482;SDS011;25682;48.438;1.482;2022-07-29T02:53:56;3.20;;;1.20;;
39482;SDS011;25682;48.438;1.482;2022-07-29T02:56:25;1.83;;;1.00;;
39482;SDS011;25682;48.438;1.482;2022-07-29T02:58:57;3.88;;;1.33;;
39482;SDS011;25682;48.438;1.482;2022-07-29T03:01:24;3.33;;;1.10;;
39482;SDS011;25682;48.438;1.482;2022-07-29T03:03:53;4.80;;;1.15;;
39482;SDS011;25682;48.438;1.482;2022-07-29T03:06:23;2.40;;;1.40;;
39482;SDS011;25682;48.438;1.482;2022-07-29T03:08:50;2.75;;;1.20;;
39482;SDS011;25682;48.438;1.482;2022-07-29T03:11:17;4.57;;;1.25;;
39482;SDS011;25682;48.438;1.482;2022-07-29T03:13:43;2.65;;;1.33;;
39482;SDS011;25682;48.438;1.482;2022-07-29T03:16:09;2.25;;;1.52;;
39482;SDS011;25682;48.438;1.482;2022-07-29T03:18:36;2.95;;;1.40;;
39482;SDS011;25682;48.438;1.482;2022-07-29T03:21:02;5.72;;;1.45;;
39482;SDS011;25682;48.438;1.482;2022-07-29T03:23:28;2.67;;;1.20;;
39482;SDS011;25682;48.438;1.482;2022-07-29T03:25:55;2.60;;;1.48;;
39482;SDS011;25682;48.438;1.482;2022-07-29T03:28:21;2.90;;;1.13;;
39482;SDS011;25682;48.438;1.482;2022-07-29T03:30:47;2.15;;;1.17;;
39482;SDS011;25682;48.438;1.482;2022-07-29T03:33:13;2.60;;;1.08;;
39482;SDS011;25682;48.438;1.482;2022-07-29T03:35:39;2.05;;;1.05;;
39482;SDS011;25682;48.438;1.482;2022-07-29T03:38:05;4.25;;;1.20;;
39482;SDS011;25682;48.438;1.482;2022-07-29T03:42:57;1.75;;;1.15;;
39482;SDS011;25682;48.438;1.482;2022-07-29T03:45:24;6.22;;;1.50;;
39482;SDS011;25682;48.438;1.482;2022-07-29T03:47:57;5.00;;;1.20;;
39482;SDS011;25682;48.438;1.482;2022-07-29T03:50:24;2.25;;;1.08;;
39482;SDS011;25682;48.438;1.482;2022-07-29T03:52:50;5.20;;;1.08;;
39482;SDS011;25682;48.438;1.482;2022-07-29T03:55:17;6.90;;;1.30;;
39482;SDS011;25682;48.438;1.482;2022-07-29T03:57:43;2.15;;;1.30;;
39482;SDS011;25682;48.438;1.482;2022-07-29T04:00:10;3.60;;;1.55;;
39482;SDS011;25682;48.438;1.482;2022-07-29T04:02:36;4.03;;;1.25;;
39482;SDS011;25682;48.438;1.482;2022-07-29T04:05:03;3.60;;;1.30;;
39482;SDS011;25682;48.438;1.482;2022-07-29T04:07:30;2.50;;;1.17;;
39482;SDS011;25682;48.438;1.482;2022-07-29T04:09:56;3.42;;;1.30;;
39482;SDS011;25682;48.438;1.482;2022-07-29T04:12:22;1.63;;;1.08;;
39482;SDS011;25682;48.438;1.482;2022-07-29T04:14:47;5.13;;;1.80;;
39482;SDS011;25682;48.438;1.482;2022-07-29T04:17:15;2.20;;;1.33;;
39482;SDS011;25682;48.438;1.482;2022-07-29T04:19:41;1.63;;;1.10;;
39482;SDS011;25682;48.438;1.482;2022-07-29T04:22:06;3.85;;;1.35;;
39482;SDS011;25682;48.438;1.482;2022-07-29T04:24:32;2.60;;;1.40;;
39482;SDS011;25682;48.438;1.482;2022-07-29T04:26:58;2.83;;;1.00;;
39482;SDS011;25682;48.438;1.482;2022-07-29T04:29:24;1.98;;;1.23;;
39482;SDS011;25682;48.438;1.482;2022-07-29T04:31:50;11.13;;;1.33;;
39482;SDS011;25682;48.438;1.482;2022-07-29T04:34:17;4.90;;;1.30;;
39482;SDS011;25682;48.438;1.482;2022-07-29T04:36:42;5.30;;;1.45;;
39482;SDS011;25682;48.438;1.482;2022-07-29T04:39:08;6.28;;;1.30;;
39482;SDS011;25682;48.438;1.482;2022-07-29T04:41:35;1.70;;;1.10;;
39482;SDS011;25682;48.438;1.482;2022-07-29T04:44:01;4.45;;;1.02;;
39482;SDS011;25682;48.438;1.482;2022-07-29T04:46:30;2.22;;;1.10;;
39482;SDS011;25682;48.438;1.482;2022-07-29T04:48:55;1.20;;;0.98;;
39482;SDS011;25682;48.438;1.482;2022-07-29T04:51:21;3.85;;;1.58;;
39482;SDS011;25682;48.438;1.482;2022-07-29T04:53:47;3.72;;;1.10;;
39482;SDS011;25682;48.438;1.482;2022-07-29T04:56:14;1.75;;;1.17;;
39482;SDS011;25682;48.438;1.482;2022-07-29T04:58:39;2.45;;;1.33;;
39482;SDS011;25682;48.438;1.482;2022-07-29T05:01:05;2.17;;;1.38;;
39482;SDS011;25682;48.438;1.482;2022-07-29T05:03:31;3.22;;;1.27;;
39482;SDS011;25682;48.438;1.482;2022-07-29T05:05:57;2.70;;;1.20;;
39482;SDS011;25682;48.438;1.482;2022-07-29T05:08:23;2.60;;;1.40;;
39482;SDS011;25682;48.438;1.482;2022-07-29T05:10:49;5.18;;;1.13;;
39482;SDS011;25682;48.438;1.482;2022-07-29T05:13:15;2.05;;;1.35;;
39482;SDS011;25682;48.438;1.482;2022-07-29T05:15:41;3.45;;;1.40;;
39482;SDS011;25682;48.438;1.482;2022-07-29T05:18:07;2.30;;;1.30;;
39482;SDS011;25682;48.438;1.482;2022-07-29T05:20:33;4.93;;;1.10;;
39482;SDS011;25682;48.438;1.482;2022-07-29T05:23:00;2.10;;;1.52;;
39482;SDS011;25682;48.438;1.482;2022-07-29T05:25:27;5.07;;;1.50;;
39482;SDS011;25682;48.438;1.482;2022-07-29T05:27:53;6.72;;;3.03;;
39482;SDS011;25682;48.438;1.482;2022-07-29T05:30:19;9.40;;;2.60;;
39482;SDS011;25682;48.438;1.482;2022-07-29T05:32:45;5.70;;;2.42;;
39482;SDS011;25682;48.438;1.482;2022-07-29T05:35:11;8.70;;;2.70;;
39482;SDS011;25682;48.438;1.482;2022-07-29T05:37:38;4.38;;;2.53;;
39482;SDS011;25682;48.438;1.482;2022-07-29T05:40:04;5.95;;;2.47;;
39482;SDS011;25682;48.438;1.482;2022-07-29T05:42:30;6.25;;;2.70;;
39482;SDS011;25682;48.438;1.482;2022-07-29T05:44:56;4.45;;;2.78;;
39482;SDS011;25682;48.438;1.482;2022-07-29T05:47:22;4.10;;;2.40;;
39482;SDS011;25682;48.438;1.482;2022-07-29T05:49:49;3.53;;;2.40;;
39482;SDS011;25682;48.438;1.482;2022-07-29T05:52:15;5.15;;;2.70;;
39482;SDS011;25682;48.438;1.482;2022-07-29T05:54:41;5.40;;;2.80;;
39482;SDS011;25682;48.438;1.482;2022-07-29T05:57:07;5.93;;;2.40;;
39482;SDS011;25682;48.438;1.482;2022-07-29T05:59:36;5.43;;;2.35;;
39482;SDS011;25682;48.438;1.482;2022-07-29T06:02:03;3.60;;;2.88;;
39482;SDS011;25682;48.438;1.482;2022-07-29T06:04:30;7.30;;;2.55;;
39482;SDS011;25682;48.438;1.482;2022-07-29T06:06:56;4.43;;;2.70;;
39482;SDS011;25682;48.438;1.482;2022-07-29T06:09:22;3.67;;;2.20;;
39482;SDS011;25682;48.438;1.482;2022-07-29T06:11:48;5.07;;;2.22;;
39482;SDS011;25682;48.438;1.482;2022-07-29T06:14:14;3.55;;;2.20;;
39482;SDS011;25682;48.438;1.482;2022-07-29T06:16:40;3.75;;;2.20;;
39482;SDS011;25682;48.438;1.482;2022-07-29T06:19:07;5.88;;;2.22;;
39482;SDS011;25682;48.438;1.482;2022-07-29T06:21:33;6.40;;;2.28;;
39482;SDS011;25682;48.438;1.482;2022-07-29T06:23:59;3.95;;;2.08;;
39482;SDS011;25682;48.438;1.482;2022-07-29T06:26:25;9.52;;;2.67;;
39482;SDS011;25682;48.438;1.482;2022-07-29T06:28:51;2.85;;;1.90;;
39482;SDS011;25682;48.438;1.482;2022-07-29T06:31:17;3.25;;;2.17;;
39482;SDS011;25682;48.438;1.482;2022-07-29T06:33:43;3.42;;;1.98;;
39482;SDS011;25682;48.438;1.482;2022-07-29T06:36:09;4.28;;;2.13;;
39482;SDS011;25682;48.438;1.482;2022-07-29T06:38:35;3.78;;;2.05;;
39482;SDS011;25682;48.438;1.482;2022-07-29T06:41:03;3.45;;;2.13;;
39482;SDS011;25682;48.438;1.482;2022-07-29T06:43:37;5.38;;;2.15;;
39482;SDS011;25682;48.438;1.482;2022-07-29T06:46:04;4.07;;;1.83;;
39482;SDS011;25682;48.438;1.482;2022-07-29T06:48:30;3.38;;;1.52;;
39482;SDS011;25682;48.438;1.482;2022-07-29T06:50:57;3.75;;;1.58;;
39482;SDS011;25682;48.438;1.482;2022-07-29T06:53:23;4.45;;;1.98;;
39482;SDS011;25682;48.438;1.482;2022-07-29T06:55:49;5.18;;;1.85;;
39482;SDS011;25682;48.438;1.482;2022-07-29T06:58:15;5.25;;;1.95;;
39482;SDS011;25682;48.438;1.482;2022-07-29T07:00:43;5.10;;;1.83;;
39482;SDS011;25682;48.438;1.482;2022-07-29T07:03:09;1.98;;;1.77;;
39482;SDS011;25682;48.438;1.482;2022-07-29T07:05:35;3.72;;;1.65;;
39482;SDS011;25682;48.438;1.482;2022-07-29T07:08:02;4.05;;;2.20;;
39482;SDS011;25682;48.438;1.482;2022-07-29T07:10:28;8.32;;;1.58;;
39482;SDS011;25682;48.438;1.482;2022-07-29T07:12:54;5.20;;;1.75;;
39482;SDS011;25682;48.438;1.482;2022-07-29T07:15:20;6.72;;;1.92;;
39482;SDS011;25682;48.438;1.482;2022-07-29T07:17:47;3.00;;;1.65;;
39482;SDS011;25682;48.438;1.482;2022-07-29T07:20:14;2.85;;;1.70;;
39482;SDS011;25682;48.438;1.482;2022-07-29T07:22:40;2.40;;;1.48;;
39482;SDS011;25682;48.438;1.482;2022-07-29T07:25:06;6.20;;;1.70;;
39482;SDS011;25682;48.438;1.482;2022-07-29T07:27:32;8.98;;;1.63;;
39482;SDS011;25682;48.438;1.482;2022-07-29T07:29:58;4.82;;;1.88;;
39482;SDS011;25682;48.438;1.482;2022-07-29T07:32:24;5.82;;;2.17;;
39482;SDS011;25682;48.438;1.482;2022-07-29T07:34:50;5.20;;;1.75;;
39482;SDS011;25682;48.438;1.482;2022-07-29T07:37:16;4.40;;;1.80;;
39482;SDS011;25682;48.438;1.482;2022-07-29T07:39:44;3.97;;;1.48;;
39482;SDS011;25682;48.438;1.482;2022-07-29T07:42:10;5.70;;;1.67;;
39482;SDS011;25682;48.438;1.482;2022-07-29T07:44:37;4.35;;;1.40;;
39482;SDS011;25682;48.438;1.482;2022-07-29T07:47:03;7.38;;;2.00;;
39482;SDS011;25682;48.438;1.482;2022-07-29T07:49:29;4.57;;;1.70;;
39482;SDS011;25682;48.438;1.482;2022-07-29T07:51:55;5.15;;;1.73;;
39482;SDS011;25682;48.438;1.482;2022-07-29T07:54:21;6.20;;;1.80;;
39482;SDS011;25682;48.438;1.482;2022-07-29T07:56:47;5.47;;;2.25;;
39482;SDS011;25682;48.438;1.482;2022-07-29T07:59:14;7.93;;;2.00;;
39482;SDS011;25682;48.438;1.482;2022-07-29T08:01:40;8.55;;;1.63;;
39482;SDS011;25682;48.438;1.482;2022-07-29T08:04:07;7.68;;;1.95;;
39482;SDS011;25682;48.438;1.482;2022-07-29T08:06:33;6.22;;;1.98;;
39482;SDS011;25682;48.438;1.482;2022-07-29T08:09:05;4.68;;;1.50;;
39482;SDS011;25682;48.438;1.482;2022-07-29T08:11:32;5.05;;;1.80;;
39482;SDS011;25682;48.438;1.482;2022-07-29T08:13:58;7.38;;;1.90;;
39482;SDS011;25682;48.438;1.482;2022-07-29T08:16:26;7.88;;;1.85;;
39482;SDS011;25682;48.438;1.482;2022-07-29T08:18:52;9.75;;;1.98;;
39482;SDS011;25682;48.438;1.482;2022-07-29T08:21:21;5.47;;;2.10;;
39482;SDS011;25682;48.438;1.482;2022-07-29T08:23:48;8.32;;;1.92;;
39482;SDS011;25682;48.438;1.482;2022-07-29T08:26:17;5.88;;;2.05;;
39482;SDS011;25682;48.438;1.482;2022-07-29T08:28:44;6.60;;;1.90;;
39482;SDS011;25682;48.438;1.482;2022-07-29T08:31:11;8.73;;;1.87;;
39482;SDS011;25682;48.438;1.482;2022-07-29T08:33:37;9.15;;;1.85;;
39482;SDS011;25682;48.438;1.482;2022-07-29T08:36:03;6.72;;;2.25;;
39482;SDS011;25682;48.438;1.482;2022-07-29T08:38:29;3.75;;;1.50;;
39482;SDS011;25682;48.438;1.482;2022-07-29T08:40:55;6.45;;;2.00;;
39482;SDS011;25682;48.438;1.482;2022-07-29T08:43:21;5.32;;;1.52;;
39482;SDS011;25682;48.438;1.482;2022-07-29T08:45:48;7.25;;;2.03;;
39482;SDS011;25682;48.438;1.482;2022-07-29T08:48:16;13.65;;;2.00;;
39482;SDS011;25682;48.438;1.482;2022-07-29T08:50:43;11.00;;;1.70;;
39482;SDS011;25682;48.438;1.482;2022-07-29T08:53:15;9.73;;;1.60;;
39482;SDS011;25682;48.438;1.482;2022-07-29T08:55:46;8.07;;;2.28;;
39482;SDS011;25682;48.438;1.482;2022-07-29T08:58:12;12.57;;;2.17;;
39482;SDS011;25682;48.438;1.482;2022-07-29T09:00:43;8.35;;;1.98;;
39482;SDS011;25682;48.438;1.482;2022-07-29T09:03:11;15.40;;;2.13;;
39482;SDS011;25682;48.438;1.482;2022-07-29T09:05:38;13.05;;;1.80;;
39482;SDS011;25682;48.438;1.482;2022-07-29T09:08:06;11.65;;;2.20;;
39482;SDS011;25682;48.438;1.482;2022-07-29T09:10:47;9.40;;;2.20;;
39482;SDS011;25682;48.438;1.482;2022-07-29T09:13:13;7.93;;;1.90;;
39482;SDS011;25682;48.438;1.482;2022-07-29T09:15:39;12.10;;;2.65;;
39482;SDS011;25682;48.438;1.482;2022-07-29T09:18:05;7.68;;;1.95;;
39482;SDS011;25682;48.438;1.482;2022-07-29T09:20:31;16.42;;;2.38;;
39482;SDS011;25682;48.438;1.482;2022-07-29T09:23:15;14.75;;;2.00;;
39482;SDS011;25682;48.438;1.482;2022-07-29T09:25:41;11.25;;;1.95;;
39482;SDS011;25682;48.438;1.482;2022-07-29T09:28:12;11.23;;;2.35;;
39482;SDS011;25682;48.438;1.482;2022-07-29T09:33:17;13.52;;;2.17;;
39482;SDS011;25682;48.438;1.482;2022-07-29T09:35:43;13.70;;;2.85;;
39482;SDS011;25682;48.438;1.482;2022-07-29T09:38:12;8.82;;;2.20;;
39482;SDS011;25682;48.438;1.482;2022-07-29T09:40:38;10.07;;;2.13;;
39482;SDS011;25682;48.438;1.482;2022-07-29T09:43:11;9.02;;;1.92;;
39482;SDS011;25682;48.438;1.482;2022-07-29T09:45:38;8.70;;;1.65;;
39482;SDS011;25682;48.438;1.482;2022-07-29T09:48:14;7.00;;;1.83;;
39482;SDS011;25682;48.438;1.482;2022-07-29T09:50:41;15.10;;;2.40;;
39482;SDS011;25682;48.438;1.482;2022-07-29T09:53:07;6.18;;;2.03;;
39482;SDS011;25682;48.438;1.482;2022-07-29T09:55:45;7.95;;;2.03;;
39482;SDS011;25682;48.438;1.482;2022-07-29T09:58:18;10.20;;;2.13;;
39482;SDS011;25682;48.438;1.482;2022-07-29T10:00:45;8.48;;;2.20;;
39482;SDS011;25682;48.438;1.482;2022-07-29T10:03:12;6.03;;;1.63;;
39482;SDS011;25682;48.438;1.482;2022-07-29T10:05:38;9.10;;;1.80;;
39482;SDS011;25682;48.438;1.482;2022-07-29T10:08:05;7.88;;;1.88;;
39482;SDS011;25682;48.438;1.482;2022-07-29T10:10:34;6.55;;;1.52;;
39482;SDS011;25682;48.438;1.482;2022-07-29T10:13:01;5.38;;;1.70;;
39482;SDS011;25682;48.438;1.482;2022-07-29T10:15:28;6.28;;;1.60;;
39482;SDS011;25682;48.438;1.482;2022-07-29T10:17:55;9.65;;;1.95;;
39482;SDS011;25682;48.438;1.482;2022-07-29T10:20:22;8.13;;;1.70;;
39482;SDS011;25682;48.438;1.482;2022-07-29T10:22:49;4.97;;;1.83;;
39482;SDS011;25682;48.438;1.482;2022-07-29T10:25:15;9.30;;;2.25;;
39482;SDS011;25682;48.438;1.482;2022-07-29T10:27:42;9.20;;;2.25;;
39482;SDS011;25682;48.438;1.482;2022-07-29T10:30:08;7.65;;;1.58;;
39482;SDS011;25682;48.438;1.482;2022-07-29T10:32:49;6.47;;;1.80;;
39482;SDS011;25682;48.438;1.482;2022-07-29T10:43:41;6.72;;;1.38;;
39482;SDS011;25682;48.438;1.482;2022-07-29T10:46:08;2.80;;;1.35;;
39482;SDS011;25682;48.438;1.482;2022-07-29T10:48:35;5.85;;;1.40;;
39482;SDS011;25682;48.438;1.482;2022-07-29T10:51:03;4.82;;;1.38;;
39482;SDS011;25682;48.438;1.482;2022-07-29T10:53:45;6.22;;;1.60;;
39482;SDS011;25682;48.438;1.482;2022-07-29T11:01:35;3.03;;;1.17;;
39482;SDS011;25682;48.438;1.482;2022-07-29T11:04:01;8.88;;;2.30;;
39482;SDS011;25682;48.438;1.482;2022-07-29T11:07:00;3.78;;;1.48;;
39482;SDS011;25682;48.438;1.482;2022-07-29T11:09:18;6.15;;;1.80;;
39482;SDS011;25682;48.438;1.482;2022-07-29T11:11:44;4.82;;;1.42;;
39482;SDS011;25682;48.438;1.482;2022-07-29T11:14:10;6.85;;;1.67;;
39482;SDS011;25682;48.438;1.482;2022-07-29T11:19:21;2.40;;;1.27;;
39482;SDS011;25682;48.438;1.482;2022-07-29T11:21:48;12.07;;;1.92;;
39482;SDS011;25682;48.438;1.482;2022-07-29T11:24:21;18.63;;;1.83;;
39482;SDS011;25682;48.438;1.482;2022-07-29T11:27:09;4.57;;;1.45;;
39482;SDS011;25682;48.438;1.482;2022-07-29T11:29:39;3.65;;;1.13;;
39482;SDS011;25682;48.438;1.482;2022-07-29T11:32:09;11.02;;;1.60;;
39482;SDS011;25682;48.438;1.482;2022-07-29T11:34:35;5.03;;;1.10;;
39482;SDS011;25682;48.438;1.482;2022-07-29T11:39:38;9.52;;;1.67;;
39482;SDS011;25682;48.438;1.482;2022-07-29T11:44:58;3.70;;;1.25;;
39482;SDS011;25682;48.438;1.482;2022-07-29T11:47:25;4.32;;;1.63;;
39482;SDS011;25682;48.438;1.482;2022-07-29T11:49:52;5.85;;;1.40;;
39482;SDS011;25682;48.438;1.482;2022-07-29T11:52:19;4.60;;;1.48;;
39482;SDS011;25682;48.438;1.482;2022-07-29T11:54:47;2.08;;;1.05;;
39482;SDS011;25682;48.438;1.482;2022-07-29T11:57:14;8.90;;;1.70;;
39482;SDS011;25682;48.438;1.482;2022-07-29T11:59:42;4.88;;;1.52;;
39482;SDS011;25682;48.438;1.482;2022-07-29T12:02:09;6.25;;;1.92;;
39482;SDS011;25682;48.438;1.482;2022-07-29T12:04:54;6.45;;;1.58;;
39482;SDS011;25682;48.438;1.482;2022-07-29T12:07:27;3.45;;;1.27;;
39482;SDS011;25682;48.438;1.482;2022-07-29T12:09:53;4.90;;;1.55;;
39482;SDS011;25682;48.438;1.482;2022-07-29T12:12:19;3.42;;;1.30;;
39482;SDS011;25682;48.438;1.482;2022-07-29T12:14:45;5.72;;;1.17;;
39482;SDS011;25682;48.438;1.482;2022-07-29T12:19:56;2.80;;;1.10;;
39482;SDS011;25682;48.438;1.482;2022-07-29T12:22:27;2.97;;;1.42;;
39482;SDS011;25682;48.438;1.482;2022-07-29T12:24:53;3.35;;;1.10;;
39482;SDS011;25682;48.438;1.482;2022-07-29T12:27:19;4.60;;;1.45;;
39482;SDS011;25682;48.438;1.482;2022-07-29T12:29:55;2.20;;;1.15;;
39482;SDS011;25682;48.438;1.482;2022-07-29T12:32:21;3.90;;;1.20;;
39482;SDS011;25682;48.438;1.482;2022-07-29T12:34:48;1.98;;;1.13;;
39482;SDS011;25682;48.438;1.482;2022-07-29T12:37:14;5.15;;;1.38;;
39482;SDS011;25682;48.438;1.482;2022-07-29T12:39:40;1.25;;;0.90;;
39482;SDS011;25682;48.438;1.482;2022-07-29T12:42:10;3.50;;;0.88;;
39482;SDS011;25682;48.438;1.482;2022-07-29T12:44:46;2.25;;;1.10;;
39482;SDS011;25682;48.438;1.482;2022-07-29T12:47:12;2.60;;;1.13;;
39482;SDS011;25682;48.438;1.482;2022-07-29T12:49:39;2.78;;;1.30;;
39482;SDS011;25682;48.438;1.482;2022-07-29T12:55:09;2.47;;;1.10;;
39482;SDS011;25682;48.438;1.482;2022-07-29T12:57:45;2.35;;;1.20;;
39482;SDS011;25682;48.438;1.482;2022-07-29T13:00:12;2.47;;;1.30;;
39482;SDS011;25682;48.438;1.482;2022-07-29T13:02:39;2.63;;;1.27;;
39482;SDS011;25682;48.438;1.482;2022-07-29T13:05:06;2.70;;;1.58;;
39482;SDS011;25682;48.438;1.482;2022-07-29T13:07:36;3.17;;;1.20;;
39482;SDS011;25682;48.438;1.482;2022-07-29T13:10:11;2.15;;;1.15;;
39482;SDS011;25682;48.438;1.482;2022-07-29T13:12:38;2.25;;;1.08;;
39482;SDS011;25682;48.438;1.482;2022-07-29T13:15:16;2.05;;;1.30;;
39482;SDS011;25682;48.438;1.482;2022-07-29T13:17:42;2.40;;;1.00;;
39482;SDS011;25682;48.438;1.482;2022-07-29T13:20:09;3.15;;;1.38;;
39482;SDS011;25682;48.438;1.482;2022-07-29T13:22:39;3.88;;;1.40;;
39482;SDS011;25682;48.438;1.482;2022-07-29T13:25:07;4.45;;;1.10;;
39482;SDS011;25682;48.438;1.482;2022-07-29T13:27:34;3.78;;;1.35;;
39482;SDS011;25682;48.438;1.482;2022-07-29T13:30:02;1.98;;;1.20;;
39482;SDS011;25682;48.438;1.482;2022-07-29T13:32:29;2.03;;;1.30;;
39482;SDS011;25682;48.438;1.482;2022-07-29T13:34:56;2.25;;;1.20;;
39482;SDS011;25682;48.438;1.482;2022-07-29T13:37:22;2.63;;;1.05;;
39482;SDS011;25682;48.438;1.482;2022-07-29T13:39:48;1.42;;;1.10;;
39482;SDS011;25682;48.438;1.482;2022-07-29T13:42:14;3.78;;;1.00;;
39482;SDS011;25682;48.438;1.482;2022-07-29T13:44:40;2.17;;;0.95;;
39482;SDS011;25682;48.438;1.482;2022-07-29T13:47:06;1.65;;;1.10;;
39482;SDS011;25682;48.438;1.482;2022-07-29T13:49:33;2.72;;;1.42;;
39482;SDS011;25682;48.438;1.482;2022-07-29T13:51:59;2.33;;;1.10;;
39482;SDS011;25682;48.438;1.482;2022-07-29T13:54:25;2.67;;;1.40;;
39482;SDS011;25682;48.438;1.482;2022-07-29T13:56:51;3.50;;;1.23;;
39482;SDS011;25682;48.438;1.482;2022-07-29T13:59:17;3.05;;;1.20;;
39482;SDS011;25682;48.438;1.482;2022-07-29T14:01:43;1.95;;;1.10;;
39482;SDS011;25682;48.438;1.482;2022-07-29T14:04:10;4.35;;;1.15;;
39482;SDS011;25682;48.438;1.482;2022-07-29T14:06:36;5.82;;;0.90;;
39482;SDS011;25682;48.438;1.482;2022-07-29T14:09:02;2.53;;;1.00;;
39482;SDS011;25682;48.438;1.482;2022-07-29T14:11:31;4.32;;;1.10;;
39482;SDS011;25682;48.438;1.482;2022-07-29T14:13:57;1.70;;;1.00;;
39482;SDS011;25682;48.438;1.482;2022-07-29T14:16:23;2.08;;;1.42;;
39482;SDS011;25682;48.438;1.482;2022-07-29T14:18:49;3.75;;;1.50;;
39482;SDS011;25682;48.438;1.482;2022-07-29T14:21:15;5.15;;;1.50;;
39482;SDS011;25682;48.438;1.482;2022-07-29T14:23:41;2.97;;;1.40;;
39482;SDS011;25682;48.438;1.482;2022-07-29T14:26:07;7.57;;;1.58;;
39482;SDS011;25682;48.438;1.482;2022-07-29T14:28:33;2.95;;;1.15;;
39482;SDS011;25682;48.438;1.482;2022-07-29T14:30:59;2.05;;;1.35;;
39482;SDS011;25682;48.438;1.482;2022-07-29T14:33:25;4.45;;;1.10;;
39482;SDS011;25682;48.438;1.482;2022-07-29T14:35:51;6.22;;;1.27;;
39482;SDS011;25682;48.438;1.482;2022-07-29T14:38:17;4.47;;;1.27;;
39482;SDS011;25682;48.438;1.482;2022-07-29T14:40:43;8.82;;;1.65;;
39482;SDS011;25682;48.438;1.482;2022-07-29T14:43:09;11.07;;;1.40;;
39482;SDS011;25682;48.438;1.482;2022-07-29T14:45:35;11.60;;;1.27;;
39482;SDS011;25682;48.438;1.482;2022-07-29T14:48:01;6.10;;;1.40;;
39482;SDS011;25682;48.438;1.482;2022-07-29T14:50:27;3.92;;;1.48;;
39482;SDS011;25682;48.438;1.482;2022-07-29T14:52:53;4.05;;;1.15;;
39482;SDS011;25682;48.438;1.482;2022-07-29T14:55:19;6.25;;;1.20;;
39482;SDS011;25682;48.438;1.482;2022-07-29T14:57:45;2.22;;;1.27;;
39482;SDS011;25682;48.438;1.482;2022-07-29T15:00:11;3.70;;;1.27;;
39482;SDS011;25682;48.438;1.482;2022-07-29T15:02:37;11.75;;;1.25;;
39482;SDS011;25682;48.438;1.482;2022-07-29T15:05:03;9.27;;;1.40;;
39482;SDS011;25682;48.438;1.482;2022-07-29T15:07:29;5.47;;;1.50;;
39482;SDS011;25682;48.438;1.482;2022-07-29T15:09:56;6.57;;;1.55;;
39482;SDS011;25682;48.438;1.482;2022-07-29T15:12:22;3.15;;;1.00;;
39482;SDS011;25682;48.438;1.482;2022-07-29T15:14:48;3.95;;;1.30;;
39482;SDS011;25682;48.438;1.482;2022-07-29T15:17:14;6.25;;;1.38;;
39482;SDS011;25682;48.438;1.482;2022-07-29T15:19:40;5.85;;;1.17;;
39482;SDS011;25682;48.438;1.482;2022-07-29T15:22:06;5.05;;;1.30;;
39482;SDS011;25682;48.438;1.482;2022-07-29T15:24:32;4.18;;;1.25;;
39482;SDS011;25682;48.438;1.482;2022-07-29T15:26:59;2.15;;;0.80;;
39482;SDS011;25682;48.438;1.482;2022-07-29T15:29:25;4.10;;;1.00;;
39482;SDS011;25682;48.438;1.482;2022-07-29T15:31:51;4.22;;;1.10;;
39482;SDS011;25682;48.438;1.482;2022-07-29T15:34:17;4.03;;;1.40;;